Terminal Aerodrome Forecast
Issued by NWS

Home | Current Version | Previous Version | Text Only | Print | Product List | Glossary On
Versions: 1 2 3 4 5 6 7 8 9 10 11 12 13 14 15 16 17 18 19 20 21 22 23 24 25
000
FTUS46 KEKA 271914 AAA
TAFCEC
TAF AMD
KCEC 271914Z 2719/2818 16010KT 6SM -SHRA SCT015 SCT030 OVC060
      TEMPO 2720/2721 5SM -SHRAGS BKN025 BKN035
     FM272100 16010KT P6SM -SHRA FEW025 SCT030 OVC040
      TEMPO 2721/2724 5SM -SHRAGS SCT025 OVC030
     FM280400 18007KT P6SM -SHRA OVC035
     FM281100 VRB05KT P6SM -SHRA OVC040=

USA.gov is the U.S. government's official web portal to all federal, state and local government web resources and services.